»·PEaware :: JBU880 KLGB-KLAS

JBU880 :: KLGB-KLAS

FLIGHT INFORMATION

Flight Status: Arrived
Operator:
JetBlue Airways
More flights by this operator :: More flights under this callsign
Pilot: Justin S. (10202)
Aircraft: AIRBUS A320
(A320)
More flights by this aircraft type
Origin: KLGB Long Beach
United States
Destination: KLAS McCarran Intl
United States
More flights between these airports :: More routes between these airports
Route: ZOOMM1 MISEN KEPEC6
File this flight plan on PilotEdge
Remarks:
Altitude:
(Current/Filed)
27,000ft
Speed:
(Current/Filed)
451kts
Departed: 03-Jan-18 10:06 AM
Arrived: 03-Jan-18 10:54 AM
Distance/Time
Traveled:
201nm/0:48
Distance/Time
To Go:
Arrived

Flight Plot

Page will automatically refresh every two minutes.

Flight plan parsing failed; only flown route is shown


Map Options




Map Legend


Flown Route
Filed Route
Departure Airport
Arrival Airport
Navaid (VOR, NDB)
Fix

Horizontal Profiles

Position Reports

Time Latitude Longitude Heading Altitude Ground
Speed
03-Jan-18 09:54 33.819858 -118.146332 90 74ft 0kts
03-Jan-18 09:55 33.819858 -118.146332 90 74ft 0kts
03-Jan-18 09:56 33.819858 -118.146332 90 74ft 0kts
03-Jan-18 09:57 33.819858 -118.146332 90 74ft 0kts
03-Jan-18 09:58 33.819858 -118.146332 90 74ft 0kts
03-Jan-18 09:59 33.819858 -118.146332 90 74ft 0kts
03-Jan-18 10:00 33.819859 -118.146452 92 74ft 2kts
03-Jan-18 10:01 33.820104 -118.147073 178 74ft 2kts
03-Jan-18 10:02 33.820209 -118.147074 179 74ft 0kts
03-Jan-18 10:03 33.820209 -118.147074 179 74ft 0kts
03-Jan-18 10:04 33.820208 -118.147074 179 74ft 0kts
03-Jan-18 10:05 33.820207 -118.147074 179 74ft 0kts
03-Jan-18 10:06 33.820193 -118.147076 184 74ft 0kts
03-Jan-18 10:07 33.818607 -118.147109 179 74ft 10kts
03-Jan-18 10:08 33.815323 -118.146519 134 74ft 13kts
03-Jan-18 10:09 33.811824 -118.142287 135 74ft 22kts
03-Jan-18 10:10 33.808441 -118.138198 134 74ft 7kts
03-Jan-18 10:11 33.807403 -118.138828 316 74ft 8kts
03-Jan-18 10:12 33.826745 -118.162745 310 597ft 146kts
03-Jan-18 10:13 33.845284 -118.209789 245 2342ft 197kts
03-Jan-18 10:14 33.788464 -118.238069 191 4306ft 259kts
03-Jan-18 10:15 33.714249 -118.258149 191 6912ft 279kts
03-Jan-18 10:16 33.638492 -118.278287 191 7019ft 278kts
03-Jan-18 10:17 33.562912 -118.298577 191 7026ft 278kts
03-Jan-18 10:18 33.488887 -118.299153 138 7028ft 277kts
03-Jan-18 10:19 33.482868 -118.215447 48 8961ft 289kts
03-Jan-18 10:20 33.543029 -118.174934 26 10886ft 321kts
03-Jan-18 10:21 33.634500 -118.117233 27 12270ft 382kts
03-Jan-18 10:22 33.714765 -118.066555 27 14115ft 396kts
03-Jan-18 10:23 33.830805 -117.992934 28 16565ft 411kts
03-Jan-18 10:24 33.915166 -117.936978 35 18170ft 421kts
03-Jan-18 10:25 34.025714 -117.835562 37 20190ft 436kts
03-Jan-18 10:26 34.104355 -117.756314 50 21493ft 446kts
03-Jan-18 10:27 34.183092 -117.638090 51 22923ft 459kts
03-Jan-18 10:28 34.264789 -117.517298 51 24239ft 470kts
03-Jan-18 10:29 34.348229 -117.392525 51 25423ft 482kts
03-Jan-18 10:30 34.432938 -117.265543 52 26812ft 485kts
03-Jan-18 10:31 34.518048 -117.137643 51 27297ft 487kts
03-Jan-18 10:32 34.604082 -117.011139 50 27309ft 486kts
03-Jan-18 10:33 34.690431 -116.885134 50 27318ft 486kts
03-Jan-18 10:34 34.776954 -116.758369 50 27326ft 486kts
03-Jan-18 10:35 34.865202 -116.634126 40 27342ft 486kts
03-Jan-18 10:36 34.971088 -116.532035 37 27300ft 482kts
03-Jan-18 10:37 35.071984 -116.433381 37 25873ft 456kts
03-Jan-18 10:38 35.162286 -116.329391 46 24321ft 436kts
03-Jan-18 10:39 35.247052 -116.222764 45 24317ft 436kts
03-Jan-18 10:40 35.330954 -116.117169 45 23801ft 425kts
03-Jan-18 10:41 35.412639 -116.014106 45 21544ft 415kts
03-Jan-18 10:42 35.491463 -115.914316 45 19528ft 398kts
03-Jan-18 10:43 35.567366 -115.817852 45 17357ft 389kts
03-Jan-18 10:44 35.641881 -115.722952 45 14866ft 382kts
03-Jan-18 10:45 35.714436 -115.630434 45 13039ft 355kts
03-Jan-18 10:46 35.787542 -115.572278 1 13021ft 307kts
03-Jan-18 10:47 35.873138 -115.569362 1 13024ft 307kts
03-Jan-18 10:48 35.957936 -115.560367 21 13012ft 308kts
03-Jan-18 10:49 36.000904 -115.472234 70 13074ft 307kts
03-Jan-18 10:50 36.029398 -115.378670 77 11606ft 285kts
03-Jan-18 10:51 36.024184 -115.283284 94 10133ft 274kts
03-Jan-18 10:52 36.017463 -115.187565 94 8345ft 280kts
03-Jan-18 10:53 36.011258 -115.094738 94 6754ft 260kts
03-Jan-18 10:54 36.006016 -115.008462 94 5290ft 244kts
03-Jan-18 10:55 36.031676 -114.947784 1 4237ft 212kts
03-Jan-18 10:56 36.065489 -114.992672 291 3812ft 168kts
03-Jan-18 10:57 36.073575 -115.045093 271 3310ft 155kts
03-Jan-18 10:58 36.073635 -115.096660 270 2748ft 143kts
03-Jan-18 10:59 36.073653 -115.141351 270 2195ft 73kts
03-Jan-18 11:00 36.074647 -115.150421 302 2195ft 2kts
03-Jan-18 11:01 36.075004 -115.150993 317 2195ft 3kts
03-Jan-18 11:02 36.076769 -115.152186 333 2195ft 8kts
03-Jan-18 11:03 36.078061 -115.151974 79 2195ft 9kts
03-Jan-18 11:04 36.078505 -115.147230 93 2195ft 14kts
03-Jan-18 11:05 36.079113 -115.142446 1 2195ft 13kts
03-Jan-18 11:06 36.083368 -115.142145 45 2195ft 10kts
03-Jan-18 11:07 36.084698 -115.138472 90 2195ft 9kts
03-Jan-18 11:08 36.085351 -115.137414 0 2195ft 0kts
03-Jan-18 11:09 36.085363 -115.137414 0 2195ft 0kts
03-Jan-18 11:10 36.085363 -115.137414 0 2195ft 0kts

Navigation Log

Ident Type
Flight plan parsing failed, navigation log unavailable